createdAt,value
2023-03-14T00:01:31.640Z,2.15
2023-03-14T00:03:58.342Z,3.03
2023-03-14T00:06:25.060Z,2.92
2023-03-14T00:08:52.630Z,1.92
2023-03-14T00:11:21.873Z,4.60
2023-03-14T00:13:52.453Z,5.57
2023-03-14T00:16:20.309Z,3.28
2023-03-14T00:18:47.059Z,5.00
2023-03-14T00:21:14.184Z,4.28
2023-03-14T00:23:43.475Z,4.50
2023-03-14T00:26:17.252Z,3.83
2023-03-14T00:28:44.621Z,4.10
2023-03-14T00:31:15.285Z,4.28
2023-03-14T00:33:43.738Z,3.88
2023-03-14T00:36:19.071Z,3.85
2023-03-14T00:38:48.842Z,5.45
2023-03-14T00:41:19.143Z,4.15
2023-03-14T00:43:45.883Z,4.50
2023-03-14T00:46:13.859Z,1.65
2023-03-14T00:48:40.893Z,3.28
2023-03-14T00:51:09.720Z,4.95
2023-03-14T00:53:38.777Z,3.95
2023-03-14T00:56:08.650Z,5.32
2023-03-14T00:58:35.679Z,3.53
2023-03-14T01:01:17.064Z,4.05
2023-03-14T01:03:43.982Z,4.47
2023-03-14T01:06:20.607Z,4.45
2023-03-14T01:08:48.169Z,3.08
2023-03-14T01:11:36.002Z,4.95
2023-03-14T01:14:03.767Z,2.85
2023-03-14T01:16:35.480Z,5.28
2023-03-14T01:19:03.415Z,9.07
2023-03-14T01:21:33.473Z,5.28
2023-03-14T01:24:02.594Z,8.23
2023-03-14T01:26:34.520Z,4.55
2023-03-14T01:29:02.216Z,5.32
2023-03-14T01:31:29.395Z,6.40
2023-03-14T01:33:56.140Z,3.10
2023-03-14T01:36:22.811Z,4.97
2023-03-14T01:38:49.629Z,5.32
2023-03-14T01:41:21.937Z,4.88
2023-03-14T01:43:49.633Z,4.68
2023-03-14T01:46:31.606Z,3.60
2023-03-14T01:49:05.705Z,4.70
2023-03-14T01:51:55.008Z,4.68
2023-03-14T01:54:33.580Z,2.78
2023-03-14T01:57:14.708Z,6.47
2023-03-14T01:59:53.500Z,4.80
2023-03-14T02:02:20.687Z,5.22
2023-03-14T02:04:47.685Z,3.35
2023-03-14T02:07:32.325Z,4.53
2023-03-14T02:10:00.827Z,7.55
2023-03-14T02:12:28.161Z,6.15
2023-03-14T02:14:54.745Z,7.03
2023-03-14T02:17:23.818Z,8.07
2023-03-14T02:20:21.101Z,6.47
2023-03-14T02:22:48.245Z,5.43
2023-03-14T02:25:41.397Z,4.10
2023-03-14T02:28:08.252Z,3.20
2023-03-14T02:30:36.215Z,6.05
2023-03-14T02:33:11.222Z,6.20
2023-03-14T02:36:01.086Z,4.72
2023-03-14T02:38:58.959Z,6.63
2023-03-14T02:41:25.566Z,6.63
2023-03-14T02:43:52.324Z,5.65
2023-03-14T02:46:21.428Z,5.30
2023-03-14T02:48:58.059Z,4.63
2023-03-14T02:51:28.400Z,5.85
2023-03-14T02:53:55.611Z,5.47
2023-03-14T02:56:22.441Z,3.17
2023-03-14T02:58:49.018Z,4.25
2023-03-14T03:01:15.676Z,4.18
2023-03-14T03:03:42.606Z,3.67
2023-03-14T03:06:09.420Z,2.60
2023-03-14T03:08:36.253Z,3.20
2023-03-14T03:11:04.559Z,4.68
2023-03-14T03:13:31.154Z,4.57
2023-03-14T03:15:57.914Z,6.07
2023-03-14T03:18:24.570Z,3.10
2023-03-14T03:20:51.237Z,4.88
2023-03-14T03:23:17.924Z,6.75
2023-03-14T03:25:50.611Z,6.57
2023-03-14T03:28:17.430Z,6.20
2023-03-14T03:30:44.815Z,8.85
2023-03-14T03:33:12.793Z,7.72
2023-03-14T03:35:49.014Z,3.85
2023-03-14T03:38:16.730Z,7.43
2023-03-14T03:40:44.140Z,6.32
2023-03-14T03:43:10.947Z,8.30
2023-03-14T03:45:37.570Z,3.85
2023-03-14T03:48:04.616Z,4.57
2023-03-14T03:50:31.215Z,3.95
2023-03-14T03:52:57.875Z,2.33
2023-03-14T03:55:24.508Z,3.72
2023-03-14T03:57:51.139Z,5.65
2023-03-14T04:00:18.114Z,5.60
2023-03-14T04:02:45.139Z,5.65
2023-03-14T04:05:11.845Z,3.55
2023-03-14T04:07:38.695Z,3.22
2023-03-14T04:10:05.906Z,4.45
2023-03-14T04:12:32.714Z,4.60
2023-03-14T04:14:59.326Z,5.72
2023-03-14T04:17:26.100Z,5.28
2023-03-14T04:19:54.686Z,8.98
2023-03-14T04:22:21.690Z,7.57
2023-03-14T04:24:48.323Z,5.38
2023-03-14T04:27:15.628Z,7.85
2023-03-14T04:29:43.438Z,4.70
2023-03-14T04:32:10.371Z,2.78
2023-03-14T04:34:37.234Z,5.75
2023-03-14T04:37:03.966Z,5.43
2023-03-14T04:39:30.561Z,6.70
2023-03-14T04:41:57.141Z,4.50
2023-03-14T04:44:27.415Z,5.13
2023-03-14T04:46:54.330Z,3.80
2023-03-14T04:49:21.423Z,4.93
2023-03-14T04:51:48.083Z,4.00
2023-03-14T04:54:14.771Z,3.08
2023-03-14T04:56:41.359Z,5.18
2023-03-14T04:59:09.093Z,4.60
2023-03-14T05:01:36.370Z,3.88
2023-03-14T05:04:03.067Z,4.10
2023-03-14T05:06:29.724Z,4.78
2023-03-14T05:08:56.301Z,5.10
2023-03-14T05:11:22.900Z,4.95
2023-03-14T05:13:49.513Z,3.50
2023-03-14T05:16:16.196Z,6.05
2023-03-14T05:18:42.826Z,4.05
2023-03-14T05:21:10.387Z,5.32
2023-03-14T05:23:37.054Z,3.70
2023-03-14T05:26:03.793Z,4.90
2023-03-14T05:28:30.428Z,4.10
2023-03-14T05:30:57.070Z,4.70
2023-03-14T05:33:23.903Z,5.25
2023-03-14T05:35:50.655Z,4.78
2023-03-14T05:38:17.343Z,6.05
2023-03-14T05:40:45.621Z,6.97
2023-03-14T05:43:12.207Z,4.10
2023-03-14T05:45:38.840Z,2.25
2023-03-14T05:48:05.964Z,2.72
2023-03-14T05:50:32.627Z,4.88
2023-03-14T05:52:59.285Z,2.95
2023-03-14T05:55:26.243Z,2.45
2023-03-14T05:57:54.918Z,2.70
2023-03-14T06:00:22.669Z,1.80
2023-03-14T06:02:49.413Z,1.33
2023-03-14T06:05:16.044Z,2.45
2023-03-14T06:07:42.684Z,2.40
2023-03-14T06:10:10.167Z,2.03
2023-03-14T06:12:36.844Z,1.77
2023-03-14T06:15:03.764Z,2.88
2023-03-14T06:17:30.351Z,2.28
2023-03-14T06:19:56.971Z,3.65
2023-03-14T06:22:23.639Z,7.10
2023-03-14T06:24:50.243Z,3.80
2023-03-14T06:27:17.213Z,1.52
2023-03-14T06:29:43.804Z,2.40
2023-03-14T06:32:10.653Z,1.55
2023-03-14T06:34:37.444Z,3.13
2023-03-14T06:37:04.012Z,3.30
2023-03-14T06:39:31.288Z,3.70
2023-03-14T06:41:57.941Z,2.25
2023-03-14T06:44:24.643Z,2.08
2023-03-14T06:46:51.336Z,1.02
2023-03-14T06:49:17.958Z,1.65
2023-03-14T06:51:44.598Z,2.30
2023-03-14T06:54:11.217Z,5.03
2023-03-14T06:56:38.831Z,3.00
2023-03-14T06:59:05.935Z,2.17
2023-03-14T07:01:36.172Z,1.85
2023-03-14T07:04:03.574Z,5.25
2023-03-14T07:06:30.360Z,3.00
2023-03-14T07:08:57.418Z,1.45
2023-03-14T07:11:24.524Z,1.80
2023-03-14T07:13:51.124Z,3.65
2023-03-14T07:16:17.845Z,2.67
2023-03-14T07:18:44.703Z,3.17
2023-03-14T07:21:11.513Z,2.55
2023-03-14T07:23:38.164Z,2.72
2023-03-14T07:26:05.465Z,2.92
2023-03-14T07:28:32.084Z,2.33
2023-03-14T07:31:00.399Z,1.13
2023-03-14T07:33:27.054Z,1.67
2023-03-14T07:35:53.853Z,2.20
2023-03-14T07:38:22.722Z,1.73
2023-03-14T07:40:50.216Z,1.63
2023-03-14T07:43:18.060Z,3.58
2023-03-14T07:45:50.852Z,2.47
2023-03-14T07:48:18.011Z,2.05
2023-03-14T07:50:44.936Z,2.00
2023-03-14T07:53:11.591Z,2.08
2023-03-14T07:55:38.191Z,2.35
2023-03-14T07:58:04.894Z,1.55
2023-03-14T08:00:31.590Z,2.55
2023-03-14T08:02:58.208Z,1.75
2023-03-14T08:05:25.143Z,2.58
2023-03-14T08:07:51.876Z,0.88
2023-03-14T08:10:24.707Z,1.38
2023-03-14T08:12:55.131Z,1.65
2023-03-14T08:15:22.171Z,1.85
2023-03-14T08:17:52.098Z,1.30
2023-03-14T08:20:19.454Z,1.38
2023-03-14T08:22:46.124Z,1.33
2023-03-14T08:25:13.187Z,3.00
2023-03-14T08:27:40.141Z,1.52
2023-03-14T08:30:09.706Z,2.58
2023-03-14T08:32:38.053Z,2.20
2023-03-14T08:35:06.565Z,0.75
2023-03-14T08:37:34.520Z,0.90
2023-03-14T08:40:01.413Z,0.38
2023-03-14T08:42:28.216Z,2.08
2023-03-14T08:44:54.799Z,2.40
2023-03-14T08:47:21.408Z,2.67
2023-03-14T08:49:48.033Z,2.97
2023-03-14T08:52:16.916Z,1.77
2023-03-14T08:54:45.534Z,2.72
2023-03-14T08:57:12.678Z,2.90
2023-03-14T08:59:42.238Z,0.55
2023-03-14T09:02:13.593Z,0.82
2023-03-14T09:04:40.567Z,0.80
2023-03-14T09:07:07.259Z,1.23
2023-03-14T09:09:33.859Z,2.05
2023-03-14T09:12:00.483Z,1.73
2023-03-14T09:14:27.326Z,1.70
2023-03-14T09:16:54.054Z,0.95
2023-03-14T09:19:21.513Z,2.15
2023-03-14T09:21:48.359Z,0.93
2023-03-14T09:24:15.216Z,1.25
2023-03-14T09:26:41.854Z,0.90
2023-03-14T09:29:08.610Z,1.95
2023-03-14T09:31:35.940Z,0.95
2023-03-14T09:34:02.592Z,0.77
2023-03-14T09:36:30.024Z,1.02
2023-03-14T09:38:56.650Z,0.75
2023-03-14T09:41:37.166Z,2.95
2023-03-14T09:44:20.875Z,1.88
2023-03-14T09:46:53.090Z,1.80
2023-03-14T09:49:36.321Z,1.27
2023-03-14T09:52:20.493Z,2.28
2023-03-14T09:55:01.014Z,1.25
2023-03-14T09:57:28.769Z,2.55
2023-03-14T10:00:14.855Z,2.13
2023-03-14T10:02:44.243Z,2.20
2023-03-14T10:05:20.263Z,2.97
2023-03-14T10:07:56.851Z,1.42
2023-03-14T10:10:26.611Z,2.60
2023-03-14T10:13:13.886Z,1.80
2023-03-14T10:15:40.848Z,0.85
2023-03-14T10:18:16.279Z,2.22
2023-03-14T10:20:47.855Z,0.47
2023-03-14T10:23:14.401Z,0.40
2023-03-14T10:25:47.543Z,0.60
2023-03-14T10:28:34.314Z,0.90
2023-03-14T10:31:01.702Z,1.35
2023-03-14T10:33:32.644Z,2.10
2023-03-14T10:36:27.452Z,1.48
2023-03-14T10:39:25.118Z,0.55
2023-03-14T10:41:56.478Z,0.77
2023-03-14T10:44:26.554Z,0.70
2023-03-14T10:47:06.210Z,0.38
2023-03-14T10:49:37.215Z,0.40
2023-03-14T10:52:31.147Z,0.70
2023-03-14T10:55:11.041Z,1.75
2023-03-14T10:57:41.725Z,1.38
2023-03-14T11:00:21.841Z,2.30
2023-03-14T11:03:13.819Z,1.42
2023-03-14T11:06:08.316Z,1.58
2023-03-14T11:08:57.176Z,0.30
2023-03-14T11:11:28.435Z,1.20
2023-03-14T11:14:30.364Z,0.88
2023-03-14T11:17:21.832Z,1.75
2023-03-14T11:20:27.778Z,0.75
2023-03-14T11:23:26.590Z,0.57
2023-03-14T11:26:29.534Z,0.85
2023-03-14T11:29:17.145Z,2.53
2023-03-14T11:31:45.958Z,0.35
2023-03-14T11:34:24.515Z,1.38
2023-03-14T11:37:00.562Z,1.20
2023-03-14T11:39:38.914Z,1.75
2023-03-14T11:42:05.988Z,0.57
2023-03-14T11:44:40.669Z,0.85
2023-03-14T11:47:16.913Z,1.63
2023-03-14T11:49:51.963Z,1.15
2023-03-14T11:52:38.003Z,5.10
2023-03-14T11:55:20.230Z,1.52
2023-03-14T11:57:49.013Z,0.30
2023-03-14T12:00:24.897Z,2.17
2023-03-14T12:03:24.989Z,0.30
2023-03-14T12:06:38.756Z,0.55
2023-03-14T12:09:07.563Z,0.43
2023-03-14T12:11:49.853Z,0.20
2023-03-14T12:14:31.813Z,0.20
2023-03-14T12:17:36.101Z,0.25
2023-03-14T12:20:16.672Z,0.75
2023-03-14T12:22:51.191Z,0.30
2023-03-14T12:25:23.161Z,2.38
2023-03-14T12:27:55.834Z,0.30
2023-03-14T12:30:40.678Z,0.30
2023-03-14T12:33:10.418Z,0.25
2023-03-14T12:35:45.356Z,0.85
2023-03-14T12:38:50.882Z,0.65
2023-03-14T12:41:39.765Z,0.75
2023-03-14T12:44:32.886Z,2.25
2023-03-14T12:47:20.472Z,0.65
2023-03-14T12:49:58.210Z,0.55
2023-03-14T12:52:57.979Z,0.80
2023-03-14T12:55:37.374Z,1.10
2023-03-14T12:58:17.794Z,0.30
2023-03-14T13:00:52.436Z,0.50
2023-03-14T13:03:26.430Z,0.50
2023-03-14T13:06:02.672Z,0.50
2023-03-14T13:08:43.182Z,0.60
2023-03-14T13:11:13.248Z,0.32
2023-03-14T13:13:48.580Z,0.40
2023-03-14T13:16:21.698Z,0.38
2023-03-14T13:18:52.513Z,0.50
2023-03-14T13:21:22.896Z,1.08
2023-03-14T13:24:21.794Z,1.95
2023-03-14T13:26:48.470Z,0.50
2023-03-14T13:29:24.976Z,0.47
2023-03-14T13:32:00.310Z,1.52
2023-03-14T13:34:32.800Z,1.98
2023-03-14T13:37:18.334Z,2.25
2023-03-14T13:39:56.289Z,5.68
2023-03-14T13:42:28.853Z,4.38
2023-03-14T13:44:57.513Z,1.92
2023-03-14T13:47:27.644Z,2.63
2023-03-14T13:49:54.603Z,1.10
2023-03-14T13:52:38.366Z,3.45
2023-03-14T13:55:07.582Z,2.65
2023-03-14T13:57:56.726Z,0.95
2023-03-14T14:00:28.419Z,0.40
2023-03-14T14:02:57.715Z,0.30
2023-03-14T14:05:28.414Z,0.63
2023-03-14T14:07:55.696Z,0.30
2023-03-14T14:10:22.945Z,0.20
2023-03-14T14:13:03.848Z,0.45
2023-03-14T14:15:34.930Z,0.73
2023-03-14T14:18:05.791Z,1.20
2023-03-14T14:20:42.157Z,0.50
2023-03-14T14:23:14.161Z,0.57
2023-03-14T14:25:41.373Z,0.20
2023-03-14T14:28:30.829Z,0.65
2023-03-14T14:31:14.635Z,0.70
2023-03-14T14:33:46.217Z,0.50
2023-03-14T14:36:33.149Z,1.48
2023-03-14T14:39:05.998Z,1.10
2023-03-14T14:41:36.334Z,1.30
2023-03-14T14:44:05.361Z,1.38
2023-03-14T14:46:34.966Z,0.95
2023-03-14T14:49:15.064Z,1.00
2023-03-14T14:51:50.285Z,0.90
2023-03-14T14:54:34.788Z,1.35
2023-03-14T14:57:07.292Z,2.58
2023-03-14T14:59:44.432Z,1.92
2023-03-14T15:02:45.072Z,1.17
2023-03-14T15:05:21.144Z,1.40
2023-03-14T15:07:48.594Z,3.17
2023-03-14T15:10:20.513Z,1.17
2023-03-14T15:12:48.502Z,2.63
2023-03-14T15:15:17.022Z,1.20
2023-03-14T15:17:43.881Z,1.15
2023-03-14T15:20:17.429Z,1.63
2023-03-14T15:22:44.286Z,1.58
2023-03-14T15:25:31.534Z,0.85
2023-03-14T15:27:57.940Z,1.65
2023-03-14T15:30:24.564Z,1.48
2023-03-14T15:32:51.184Z,1.13
2023-03-14T15:35:18.030Z,1.30
2023-03-14T15:37:45.621Z,1.60
2023-03-14T15:40:14.949Z,0.90
2023-03-14T15:42:42.394Z,1.23
2023-03-14T15:45:12.148Z,1.27
2023-03-14T15:47:38.713Z,1.10
2023-03-14T15:50:06.084Z,1.42
2023-03-14T15:52:32.768Z,41.65
2023-03-14T15:54:59.332Z,2.95
2023-03-14T15:57:25.915Z,30.85
2023-03-14T15:59:52.753Z,1.73
2023-03-14T16:02:19.376Z,3.67
2023-03-14T16:04:46.468Z,6.57
2023-03-14T16:07:13.059Z,2.85
2023-03-14T16:09:39.608Z,3.55
2023-03-14T16:12:08.345Z,2.13
2023-03-14T16:14:35.051Z,4.95
2023-03-14T16:17:01.779Z,1.63
2023-03-14T16:19:29.134Z,2.83
2023-03-14T16:21:55.726Z,2.30
2023-03-14T16:24:22.318Z,1.67
2023-03-14T16:26:48.937Z,3.47
2023-03-14T16:29:16.885Z,2.58
2023-03-14T16:31:43.606Z,1.95
2023-03-14T16:34:20.443Z,2.67
2023-03-14T16:36:47.966Z,2.35
2023-03-14T16:39:14.573Z,3.75
2023-03-14T16:41:41.207Z,4.63
2023-03-14T16:44:07.842Z,4.45
2023-03-14T16:46:36.258Z,3.20
2023-03-14T16:49:04.080Z,2.00
2023-03-14T16:51:31.115Z,2.35
2023-03-14T16:53:58.075Z,1.67
2023-03-14T16:56:24.842Z,2.22
2023-03-14T16:58:51.645Z,2.30
2023-03-14T17:01:19.093Z,2.33
2023-03-14T17:03:49.176Z,1.88
2023-03-14T17:06:26.016Z,3.35
2023-03-14T17:08:54.920Z,2.53
2023-03-14T17:11:22.925Z,1.88
2023-03-14T17:13:49.626Z,2.50
2023-03-14T17:16:16.294Z,2.72
2023-03-14T17:18:43.016Z,2.55
2023-03-14T17:21:09.671Z,1.70
2023-03-14T17:23:37.132Z,3.05
2023-03-14T17:26:04.235Z,2.78
2023-03-14T17:28:31.251Z,3.35
2023-03-14T17:31:13.501Z,3.78
2023-03-14T17:33:40.125Z,2.72
2023-03-14T17:36:07.513Z,2.28
2023-03-14T17:38:37.508Z,1.67
2023-03-14T17:41:12.458Z,4.75
2023-03-14T17:43:40.017Z,4.18
2023-03-14T17:46:12.161Z,3.33
2023-03-14T17:48:38.919Z,3.13
2023-03-14T17:51:07.944Z,3.65
2023-03-14T17:53:35.065Z,3.95
2023-03-14T17:56:01.693Z,6.45
2023-03-14T17:58:34.116Z,8.27
2023-03-14T18:01:14.213Z,5.18
2023-03-14T18:03:41.765Z,3.28
2023-03-14T18:06:14.338Z,3.70
2023-03-14T18:08:44.580Z,3.72
2023-03-14T18:11:12.283Z,6.55
2023-03-14T18:13:40.322Z,5.20
2023-03-14T18:16:09.045Z,5.22
2023-03-14T18:18:35.948Z,7.90
2023-03-14T18:21:02.648Z,5.68
2023-03-14T18:23:29.242Z,6.07
2023-03-14T18:25:59.238Z,4.28
2023-03-14T18:28:25.884Z,7.93
2023-03-14T18:30:52.849Z,4.63
2023-03-14T18:33:23.659Z,7.75
2023-03-14T18:35:53.130Z,8.82
2023-03-14T18:38:21.152Z,6.85
2023-03-14T18:40:47.871Z,7.30
2023-03-14T18:43:14.449Z,8.50
2023-03-14T18:45:41.143Z,7.10
2023-03-14T18:48:07.717Z,8.68
2023-03-14T18:50:34.360Z,7.05
2023-03-14T18:53:01.650Z,11.63
2023-03-14T18:55:28.324Z,5.57
2023-03-14T18:57:54.913Z,4.47
2023-03-14T19:00:22.127Z,7.88
2023-03-14T19:02:50.259Z,7.30
2023-03-14T19:05:17.030Z,7.60
2023-03-14T19:07:43.690Z,7.97
2023-03-14T19:10:11.401Z,6.38
2023-03-14T19:12:38.026Z,9.05
2023-03-14T19:15:05.219Z,12.05
2023-03-14T19:17:31.871Z,8.70
2023-03-14T19:19:58.696Z,8.25
2023-03-14T19:22:25.361Z,15.68
2023-03-14T19:24:55.762Z,10.25
2023-03-14T19:27:22.360Z,15.73
2023-03-14T19:29:49.508Z,16.23
2023-03-14T19:32:18.687Z,15.50
2023-03-14T19:34:45.360Z,12.77
2023-03-14T19:37:12.032Z,21.30
2023-03-14T19:39:38.925Z,14.55
2023-03-14T19:42:05.635Z,17.50
2023-03-14T19:44:32.308Z,14.13
2023-03-14T19:46:58.941Z,11.55
2023-03-14T19:49:27.505Z,13.13
2023-03-14T19:51:54.111Z,15.23
2023-03-14T19:54:22.360Z,18.58
2023-03-14T19:56:49.093Z,17.92
2023-03-14T19:59:15.784Z,24.33
2023-03-14T20:01:46.499Z,20.85
2023-03-14T20:04:14.479Z,20.17
2023-03-14T20:06:45.062Z,27.05
2023-03-14T20:09:11.832Z,21.15
2023-03-14T20:11:40.696Z,13.95
2023-03-14T20:14:09.087Z,14.38
2023-03-14T20:16:37.513Z,13.07
2023-03-14T20:19:07.014Z,18.08
2023-03-14T20:21:33.877Z,19.80
2023-03-14T20:24:01.220Z,19.65
2023-03-14T20:26:28.167Z,11.52
2023-03-14T20:28:55.308Z,12.63
2023-03-14T20:31:22.637Z,12.77
2023-03-14T20:33:51.375Z,7.90
2023-03-14T20:36:18.306Z,8.05
2023-03-14T20:38:44.930Z,13.38
2023-03-14T20:41:11.693Z,10.55
2023-03-14T20:43:39.386Z,11.45
2023-03-14T20:46:06.683Z,15.38
2023-03-14T20:48:33.694Z,15.20
2023-03-14T20:51:01.521Z,12.68
2023-03-14T20:53:28.231Z,15.80
2023-03-14T20:55:57.128Z,16.63
2023-03-14T20:58:24.883Z,14.23
2023-03-14T21:00:54.863Z,13.55
2023-03-14T21:03:22.997Z,15.48
2023-03-14T21:05:51.092Z,14.20
2023-03-14T21:08:23.069Z,10.63
2023-03-14T21:10:51.290Z,8.45
2023-03-14T21:13:18.245Z,9.05
2023-03-14T21:15:45.135Z,15.15
2023-03-14T21:18:12.569Z,11.80
2023-03-14T21:20:40.930Z,15.50
2023-03-14T21:23:08.378Z,7.00
2023-03-14T21:25:35.680Z,16.02
2023-03-14T21:28:05.585Z,11.75
2023-03-14T21:30:34.655Z,11.68
2023-03-14T21:33:01.601Z,18.83
2023-03-14T21:35:28.586Z,10.65
2023-03-14T21:37:55.177Z,10.38
2023-03-14T21:40:23.012Z,11.85
2023-03-14T21:42:49.584Z,9.32
2023-03-14T21:45:16.654Z,15.57
2023-03-14T21:47:47.251Z,11.88
2023-03-14T21:50:17.424Z,15.77
2023-03-14T21:52:46.153Z,11.05
2023-03-14T21:55:17.522Z,12.98
2023-03-14T21:57:46.417Z,17.23
2023-03-14T22:00:17.276Z,15.82
2023-03-14T22:02:58.123Z,11.68
2023-03-14T22:05:33.709Z,7.30
2023-03-14T22:08:00.279Z,8.00
2023-03-14T22:10:27.033Z,11.27
2023-03-14T22:12:55.877Z,9.10
2023-03-14T22:15:22.464Z,8.82
2023-03-14T22:17:49.133Z,7.90
2023-03-14T22:20:15.754Z,11.13
2023-03-14T22:22:42.470Z,7.57
2023-03-14T22:25:09.525Z,11.82
2023-03-14T22:27:36.267Z,6.13
2023-03-14T22:30:03.347Z,11.18
2023-03-14T22:32:29.949Z,9.40
2023-03-14T22:34:56.604Z,9.32
2023-03-14T22:37:25.286Z,10.48
2023-03-14T22:39:52.395Z,8.38
2023-03-14T22:42:19.157Z,8.80
2023-03-14T22:44:45.812Z,4.70
2023-03-14T22:47:12.552Z,8.40
2023-03-14T22:49:39.405Z,9.02
2023-03-14T22:52:06.076Z,8.55
2023-03-14T22:54:32.677Z,6.50
2023-03-14T22:56:59.272Z,12.32
2023-03-14T22:59:25.926Z,17.70
2023-03-14T23:01:52.525Z,19.67
2023-03-14T23:04:19.300Z,23.45
2023-03-14T23:06:45.987Z,22.00
2023-03-14T23:09:12.774Z,17.63
2023-03-14T23:11:39.895Z,15.93
2023-03-14T23:14:06.836Z,14.48
2023-03-14T23:16:39.999Z,9.23
2023-03-14T23:19:06.990Z,14.68
2023-03-14T23:21:33.596Z,8.13
2023-03-14T23:24:05.964Z,10.93
2023-03-14T23:26:35.337Z,10.70
2023-03-14T23:29:07.374Z,10.20
2023-03-14T23:31:34.265Z,4.88
2023-03-14T23:34:01.001Z,6.75
2023-03-14T23:36:27.725Z,8.48
2023-03-14T23:38:54.295Z,8.30
2023-03-14T23:41:21.129Z,9.07
2023-03-14T23:43:48.780Z,9.10
2023-03-14T23:46:16.815Z,9.55
2023-03-14T23:48:46.535Z,9.70
2023-03-14T23:51:14.376Z,12.23
2023-03-14T23:53:41.126Z,7.00
2023-03-14T23:56:08.224Z,9.95
2023-03-14T23:58:35.818Z,5.60
